Terminal Aerodrome Forecast
Issued by NWS

Home | Current Version | Previous Version | Text Only | Print | Product List | Glossary On
Versions: 1 2 3 4 5 6 7 8 9 10 11 12
000
FTUS41 KLWX 291739
TAFMTN
TAF
KMTN 291739Z 2918/3018 14005KT P6SM SCT150
     FM292300 16007KT P6SM -SHRA BKN090
     FM300200 16005KT 3SM SHRA OVC025
     FM301100 VRB03KT 5SM -SHRA OVC015=

USA.gov is the U.S. government's official web portal to all federal, state and local government web resources and services.